sensor_id;sensor_type;location;lat;lon;timestamp;P1;durP1;ratioP1;P2;durP2;ratioP2
3726;SDS011;1879;45.876;12.300;2023-04-24T00:00:31;23.23;;;18.93;;
3726;SDS011;1879;45.876;12.300;2023-04-24T00:02:58;20.40;;;17.60;;
3726;SDS011;1879;45.876;12.300;2023-04-24T00:05:25;19.63;;;17.63;;
3726;SDS011;1879;45.876;12.300;2023-04-24T00:07:54;21.03;;;17.10;;
3726;SDS011;1879;45.876;12.300;2023-04-24T00:10:21;19.10;;;17.23;;
3726;SDS011;1879;45.876;12.300;2023-04-24T00:12:48;17.97;;;16.27;;
3726;SDS011;1879;45.876;12.300;2023-04-24T00:15:15;16.92;;;15.23;;
3726;SDS011;1879;45.876;12.300;2023-04-24T00:17:42;16.20;;;14.60;;
3726;SDS011;1879;45.876;12.300;2023-04-24T00:20:09;17.53;;;15.77;;
3726;SDS011;1879;45.876;12.300;2023-04-24T00:22:36;15.93;;;13.50;;
3726;SDS011;1879;45.876;12.300;2023-04-24T00:25:05;16.90;;;14.77;;
3726;SDS011;1879;45.876;12.300;2023-04-24T00:27:33;16.83;;;15.23;;
3726;SDS011;1879;45.876;12.300;2023-04-24T00:30:01;15.80;;;14.30;;
3726;SDS011;1879;45.876;12.300;2023-04-24T00:32:29;15.10;;;13.60;;
3726;SDS011;1879;45.876;12.300;2023-04-24T00:34:56;14.40;;;12.90;;
3726;SDS011;1879;45.876;12.300;2023-04-24T00:37:23;14.20;;;12.60;;
3726;SDS011;1879;45.876;12.300;2023-04-24T00:39:50;15.10;;;13.60;;
3726;SDS011;1879;45.876;12.300;2023-04-24T00:42:18;13.50;;;12.20;;
3726;SDS011;1879;45.876;12.300;2023-04-24T00:44:46;14.70;;;13.20;;
3726;SDS011;1879;45.876;12.300;2023-04-24T00:47:13;13.33;;;12.03;;
3726;SDS011;1879;45.876;12.300;2023-04-24T00:49:40;11.13;;;10.13;;
3726;SDS011;1879;45.876;12.300;2023-04-24T00:52:07;11.50;;;10.40;;
3726;SDS011;1879;45.876;12.300;2023-04-24T00:54:34;12.17;;;10.80;;
3726;SDS011;1879;45.876;12.300;2023-04-24T00:57:02;12.50;;;11.20;;
3726;SDS011;1879;45.876;12.300;2023-04-24T00:59:31;11.07;;;10.07;;
3726;SDS011;1879;45.876;12.300;2023-04-24T01:01:58;11.13;;;9.97;;
3726;SDS011;1879;45.876;12.300;2023-04-24T01:04:29;11.60;;;10.13;;
3726;SDS011;1879;45.876;12.300;2023-04-24T01:06:56;10.93;;;9.93;;
3726;SDS011;1879;45.876;12.300;2023-04-24T01:09:23;11.70;;;9.47;;
3726;SDS011;1879;45.876;12.300;2023-04-24T01:11:51;10.80;;;9.80;;
3726;SDS011;1879;45.876;12.300;2023-04-24T01:14:18;10.80;;;9.07;;
3726;SDS011;1879;45.876;12.300;2023-04-24T01:16:46;10.63;;;9.60;;
3726;SDS011;1879;45.876;12.300;2023-04-24T01:19:13;10.80;;;8.90;;
3726;SDS011;1879;45.876;12.300;2023-04-24T01:21:41;10.83;;;9.70;;
3726;SDS011;1879;45.876;12.300;2023-04-24T01:24:10;10.83;;;9.83;;
3726;SDS011;1879;45.876;12.300;2023-04-24T01:26:38;10.70;;;9.80;;
3726;SDS011;1879;45.876;12.300;2023-04-24T01:29:05;11.10;;;10.10;;
3726;SDS011;1879;45.876;12.300;2023-04-24T01:31:32;10.20;;;9.30;;
3726;SDS011;1879;45.876;12.300;2023-04-24T01:34:00;11.20;;;9.43;;
3726;SDS011;1879;45.876;12.300;2023-04-24T01:36:28;11.33;;;9.93;;
3726;SDS011;1879;45.876;12.300;2023-04-24T01:38:56;11.40;;;10.37;;
3726;SDS011;1879;45.876;12.300;2023-04-24T01:41:24;11.57;;;10.50;;
3726;SDS011;1879;45.876;12.300;2023-04-24T01:43:51;9.88;;;8.75;;
3726;SDS011;1879;45.876;12.300;2023-04-24T01:46:19;13.80;;;10.90;;
3726;SDS011;1879;45.876;12.300;2023-04-24T01:48:47;10.90;;;9.80;;
3726;SDS011;1879;45.876;12.300;2023-04-24T01:51:14;11.07;;;9.40;;
3726;SDS011;1879;45.876;12.300;2023-04-24T01:53:40;10.97;;;9.87;;
3726;SDS011;1879;45.876;12.300;2023-04-24T01:56:07;10.17;;;9.17;;
3726;SDS011;1879;45.876;12.300;2023-04-24T01:58:36;11.10;;;9.90;;
3726;SDS011;1879;45.876;12.300;2023-04-24T02:01:03;9.13;;;8.23;;
3726;SDS011;1879;45.876;12.300;2023-04-24T02:03:32;9.93;;;9.00;;
3726;SDS011;1879;45.876;12.300;2023-04-24T02:05:59;9.90;;;9.00;;
3726;SDS011;1879;45.876;12.300;2023-04-24T02:08:26;9.07;;;8.27;;
3726;SDS011;1879;45.876;12.300;2023-04-24T02:10:53;9.33;;;8.53;;
3726;SDS011;1879;45.876;12.300;2023-04-24T02:13:20;9.00;;;8.20;;
3726;SDS011;1879;45.876;12.300;2023-04-24T02:15:49;10.00;;;9.10;;
3726;SDS011;1879;45.876;12.300;2023-04-24T02:18:16;8.87;;;8.07;;
3726;SDS011;1879;45.876;12.300;2023-04-24T02:20:42;9.60;;;8.50;;
3726;SDS011;1879;45.876;12.300;2023-04-24T02:23:10;8.30;;;7.50;;
3726;SDS011;1879;45.876;12.300;2023-04-24T02:25:38;9.43;;;7.43;;
3726;SDS011;1879;45.876;12.300;2023-04-24T02:28:05;9.20;;;8.30;;
3726;SDS011;1879;45.876;12.300;2023-04-24T02:30:32;7.63;;;6.93;;
3726;SDS011;1879;45.876;12.300;2023-04-24T02:33:00;8.00;;;7.40;;
3726;SDS011;1879;45.876;12.300;2023-04-24T02:35:28;7.80;;;7.10;;
3726;SDS011;1879;45.876;12.300;2023-04-24T02:37:55;8.23;;;7.53;;
3726;SDS011;1879;45.876;12.300;2023-04-24T02:40:22;8.00;;;7.30;;
3726;SDS011;1879;45.876;12.300;2023-04-24T02:42:49;9.40;;;7.90;;
3726;SDS011;1879;45.876;12.300;2023-04-24T02:45:17;8.40;;;7.70;;
3726;SDS011;1879;45.876;12.300;2023-04-24T02:47:44;9.13;;;8.30;;
3726;SDS011;1879;45.876;12.300;2023-04-24T02:50:12;8.70;;;7.80;;
3726;SDS011;1879;45.876;12.300;2023-04-24T02:52:39;9.17;;;8.27;;
3726;SDS011;1879;45.876;12.300;2023-04-24T02:55:07;8.60;;;7.90;;
3726;SDS011;1879;45.876;12.300;2023-04-24T02:57:34;9.77;;;7.70;;
3726;SDS011;1879;45.876;12.300;2023-04-24T03:00:01;8.50;;;7.70;;
3726;SDS011;1879;45.876;12.300;2023-04-24T03:02:31;9.57;;;8.55;;
3726;SDS011;1879;45.876;12.300;2023-04-24T03:04:58;9.03;;;8.20;;
3726;SDS011;1879;45.876;12.300;2023-04-24T03:07:26;8.10;;;7.40;;
3726;SDS011;1879;45.876;12.300;2023-04-24T03:09:53;9.98;;;8.85;;
3726;SDS011;1879;45.876;12.300;2023-04-24T03:12:20;8.77;;;7.90;;
3726;SDS011;1879;45.876;12.300;2023-04-24T03:14:48;8.67;;;7.83;;
3726;SDS011;1879;45.876;12.300;2023-04-24T03:17:15;9.10;;;8.20;;
3726;SDS011;1879;45.876;12.300;2023-04-24T03:19:42;8.73;;;7.83;;
3726;SDS011;1879;45.876;12.300;2023-04-24T03:22:09;9.00;;;8.10;;
3726;SDS011;1879;45.876;12.300;2023-04-24T03:24:38;9.27;;;8.40;;
3726;SDS011;1879;45.876;12.300;2023-04-24T03:27:05;9.40;;;8.43;;
3726;SDS011;1879;45.876;12.300;2023-04-24T03:29:32;9.30;;;7.67;;
3726;SDS011;1879;45.876;12.300;2023-04-24T03:31:59;8.37;;;7.57;;
3726;SDS011;1879;45.876;12.300;2023-04-24T03:34:26;9.83;;;8.30;;
3726;SDS011;1879;45.876;12.300;2023-04-24T03:36:53;8.63;;;7.93;;
3726;SDS011;1879;45.876;12.300;2023-04-24T03:39:20;10.03;;;8.37;;
3726;SDS011;1879;45.876;12.300;2023-04-24T03:41:48;8.55;;;7.75;;
3726;SDS011;1879;45.876;12.300;2023-04-24T03:44:15;9.63;;;8.20;;
3726;SDS011;1879;45.876;12.300;2023-04-24T03:46:42;8.83;;;7.97;;
3726;SDS011;1879;45.876;12.300;2023-04-24T03:49:09;10.03;;;9.13;;
3726;SDS011;1879;45.876;12.300;2023-04-24T03:51:36;13.13;;;9.57;;
3726;SDS011;1879;45.876;12.300;2023-04-24T03:54:03;10.45;;;9.23;;
3726;SDS011;1879;45.876;12.300;2023-04-24T03:56:30;10.53;;;9.50;;
3726;SDS011;1879;45.876;12.300;2023-04-24T03:58:58;9.90;;;8.90;;
3726;SDS011;1879;45.876;12.300;2023-04-24T04:01:25;9.30;;;8.40;;
3726;SDS011;1879;45.876;12.300;2023-04-24T04:03:53;10.00;;;8.17;;
3726;SDS011;1879;45.876;12.300;2023-04-24T04:06:20;10.73;;;9.63;;
3726;SDS011;1879;45.876;12.300;2023-04-24T04:08:47;10.60;;;9.70;;
3726;SDS011;1879;45.876;12.300;2023-04-24T04:11:14;10.23;;;9.10;;
3726;SDS011;1879;45.876;12.300;2023-04-24T04:13:41;15.73;;;9.70;;
3726;SDS011;1879;45.876;12.300;2023-04-24T04:16:09;12.50;;;8.33;;
3726;SDS011;1879;45.876;12.300;2023-04-24T04:18:36;12.38;;;9.52;;
3726;SDS011;1879;45.876;12.300;2023-04-24T04:21:03;11.00;;;9.90;;
3726;SDS011;1879;45.876;12.300;2023-04-24T04:23:30;9.70;;;8.60;;
3726;SDS011;1879;45.876;12.300;2023-04-24T04:25:57;13.00;;;9.47;;
3726;SDS011;1879;45.876;12.300;2023-04-24T04:28:24;10.77;;;9.53;;
3726;SDS011;1879;45.876;12.300;2023-04-24T04:30:51;18.63;;;9.97;;
3726;SDS011;1879;45.876;12.300;2023-04-24T04:33:21;11.53;;;9.57;;
3726;SDS011;1879;45.876;12.300;2023-04-24T04:35:49;13.47;;;10.23;;
3726;SDS011;1879;45.876;12.300;2023-04-24T04:38:17;10.70;;;9.70;;
3726;SDS011;1879;45.876;12.300;2023-04-24T04:40:44;12.27;;;9.67;;
3726;SDS011;1879;45.876;12.300;2023-04-24T04:43:12;10.10;;;9.00;;
3726;SDS011;1879;45.876;12.300;2023-04-24T04:45:40;10.13;;;9.03;;
3726;SDS011;1879;45.876;12.300;2023-04-24T04:48:08;14.90;;;10.33;;
3726;SDS011;1879;45.876;12.300;2023-04-24T04:50:39;9.77;;;8.87;;
3726;SDS011;1879;45.876;12.300;2023-04-24T04:53:06;9.37;;;8.47;;
3726;SDS011;1879;45.876;12.300;2023-04-24T04:55:33;10.77;;;9.67;;
3726;SDS011;1879;45.876;12.300;2023-04-24T04:58:00;10.03;;;9.10;;
3726;SDS011;1879;45.876;12.300;2023-04-24T05:00:27;10.60;;;9.40;;
3726;SDS011;1879;45.876;12.300;2023-04-24T05:02:59;11.03;;;10.00;;
3726;SDS011;1879;45.876;12.300;2023-04-24T05:05:26;10.20;;;9.20;;
3726;SDS011;1879;45.876;12.300;2023-04-24T05:07:54;11.63;;;9.03;;
3726;SDS011;1879;45.876;12.300;2023-04-24T05:10:21;10.90;;;9.80;;
3726;SDS011;1879;45.876;12.300;2023-04-24T05:12:48;11.50;;;9.30;;
3726;SDS011;1879;45.876;12.300;2023-04-24T05:15:15;11.37;;;10.27;;
3726;SDS011;1879;45.876;12.300;2023-04-24T05:17:42;13.80;;;10.27;;
3726;SDS011;1879;45.876;12.300;2023-04-24T05:20:09;12.73;;;9.83;;
3726;SDS011;1879;45.876;12.300;2023-04-24T05:22:36;12.00;;;9.77;;
3726;SDS011;1879;45.876;12.300;2023-04-24T05:25:08;10.47;;;9.47;;
3726;SDS011;1879;45.876;12.300;2023-04-24T05:27:35;12.27;;;11.07;;
3726;SDS011;1879;45.876;12.300;2023-04-24T05:30:02;11.23;;;10.13;;
3726;SDS011;1879;45.876;12.300;2023-04-24T05:32:33;14.83;;;10.47;;
3726;SDS011;1879;45.876;12.300;2023-04-24T05:35:00;11.93;;;10.73;;
3726;SDS011;1879;45.876;12.300;2023-04-24T05:37:26;13.40;;;11.20;;
3726;SDS011;1879;45.876;12.300;2023-04-24T05:39:53;11.30;;;10.30;;
3726;SDS011;1879;45.876;12.300;2023-04-24T05:42:22;11.30;;;9.75;;
3726;SDS011;1879;45.876;12.300;2023-04-24T05:44:50;12.77;;;10.30;;
3726;SDS011;1879;45.876;12.300;2023-04-24T05:47:19;11.37;;;10.27;;
3726;SDS011;1879;45.876;12.300;2023-04-24T05:49:46;10.85;;;9.85;;
3726;SDS011;1879;45.876;12.300;2023-04-24T05:52:13;12.53;;;10.27;;
3726;SDS011;1879;45.876;12.300;2023-04-24T05:54:40;12.10;;;10.80;;
3726;SDS011;1879;45.876;12.300;2023-04-24T05:57:07;13.60;;;12.17;;
3726;SDS011;1879;45.876;12.300;2023-04-24T05:59:36;13.63;;;11.53;;
3726;SDS011;1879;45.876;12.300;2023-04-24T06:02:04;12.50;;;11.20;;
3726;SDS011;1879;45.876;12.300;2023-04-24T06:04:31;13.27;;;11.87;;
3726;SDS011;1879;45.876;12.300;2023-04-24T06:06:59;13.33;;;12.03;;
3726;SDS011;1879;45.876;12.300;2023-04-24T06:09:25;11.27;;;10.23;;
3726;SDS011;1879;45.876;12.300;2023-04-24T06:11:52;12.80;;;11.60;;
3726;SDS011;1879;45.876;12.300;2023-04-24T06:14:19;12.87;;;11.67;;
3726;SDS011;1879;45.876;12.300;2023-04-24T06:16:48;13.73;;;12.37;;
3726;SDS011;1879;45.876;12.300;2023-04-24T06:19:15;12.67;;;11.47;;
3726;SDS011;1879;45.876;12.300;2023-04-24T06:21:42;12.90;;;11.60;;
3726;SDS011;1879;45.876;12.300;2023-04-24T06:24:09;12.80;;;11.50;;
3726;SDS011;1879;45.876;12.300;2023-04-24T06:26:36;13.10;;;11.97;;
3726;SDS011;1879;45.876;12.300;2023-04-24T06:29:03;12.70;;;11.50;;
3726;SDS011;1879;45.876;12.300;2023-04-24T06:31:30;12.27;;;10.97;;
3726;SDS011;1879;45.876;12.300;2023-04-24T06:34:03;12.60;;;11.30;;
3726;SDS011;1879;45.876;12.300;2023-04-24T06:36:30;11.90;;;10.80;;
3726;SDS011;1879;45.876;12.300;2023-04-24T06:38:59;14.73;;;10.67;;
3726;SDS011;1879;45.876;12.300;2023-04-24T06:41:27;14.47;;;11.77;;
3726;SDS011;1879;45.876;12.300;2023-04-24T06:43:54;13.60;;;11.27;;
3726;SDS011;1879;45.876;12.300;2023-04-24T06:46:21;16.83;;;13.07;;
3726;SDS011;1879;45.876;12.300;2023-04-24T06:48:51;11.50;;;10.37;;
3726;SDS011;1879;45.876;12.300;2023-04-24T06:51:22;12.37;;;11.17;;
3726;SDS011;1879;45.876;12.300;2023-04-24T06:53:49;12.10;;;10.70;;
3726;SDS011;1879;45.876;12.300;2023-04-24T06:56:16;16.60;;;12.10;;
3726;SDS011;1879;45.876;12.300;2023-04-24T06:58:43;14.93;;;11.93;;
3726;SDS011;1879;45.876;12.300;2023-04-24T07:01:10;12.80;;;11.30;;
3726;SDS011;1879;45.876;12.300;2023-04-24T07:03:37;12.53;;;11.23;;
3726;SDS011;1879;45.876;12.300;2023-04-24T07:06:04;13.70;;;11.03;;
3726;SDS011;1879;45.876;12.300;2023-04-24T07:08:33;11.38;;;10.25;;
3726;SDS011;1879;45.876;12.300;2023-04-24T07:11:00;11.63;;;10.63;;
3726;SDS011;1879;45.876;12.300;2023-04-24T07:13:27;12.70;;;10.67;;
3726;SDS011;1879;45.876;12.300;2023-04-24T07:15:55;12.23;;;11.10;;
3726;SDS011;1879;45.876;12.300;2023-04-24T07:18:22;15.63;;;12.10;;
3726;SDS011;1879;45.876;12.300;2023-04-24T07:20:49;14.40;;;11.77;;
3726;SDS011;1879;45.876;12.300;2023-04-24T07:23:16;13.17;;;11.87;;
3726;SDS011;1879;45.876;12.300;2023-04-24T07:25:44;12.05;;;10.85;;
3726;SDS011;1879;45.876;12.300;2023-04-24T07:28:12;13.23;;;11.83;;
3726;SDS011;1879;45.876;12.300;2023-04-24T07:30:39;12.63;;;11.53;;
3726;SDS011;1879;45.876;12.300;2023-04-24T07:33:06;12.97;;;10.70;;
3726;SDS011;1879;45.876;12.300;2023-04-24T07:35:33;13.17;;;10.70;;
3726;SDS011;1879;45.876;12.300;2023-04-24T07:38:01;14.53;;;12.70;;
3726;SDS011;1879;45.876;12.300;2023-04-24T07:40:28;12.87;;;11.67;;
3726;SDS011;1879;45.876;12.300;2023-04-24T07:42:57;14.43;;;12.40;;
3726;SDS011;1879;45.876;12.300;2023-04-24T07:45:24;14.53;;;12.93;;
3726;SDS011;1879;45.876;12.300;2023-04-24T07:47:53;13.00;;;11.37;;
3726;SDS011;1879;45.876;12.300;2023-04-24T07:50:20;13.27;;;11.97;;
3726;SDS011;1879;45.876;12.300;2023-04-24T07:52:47;12.80;;;11.60;;
3726;SDS011;1879;45.876;12.300;2023-04-24T07:55:14;14.07;;;12.67;;
3726;SDS011;1879;45.876;12.300;2023-04-24T07:57:41;13.07;;;11.73;;
3726;SDS011;1879;45.876;12.300;2023-04-24T08:00:10;18.23;;;13.00;;
3726;SDS011;1879;45.876;12.300;2023-04-24T08:02:38;15.55;;;12.05;;
3726;SDS011;1879;45.876;12.300;2023-04-24T08:05:05;14.65;;;12.75;;
3726;SDS011;1879;45.876;12.300;2023-04-24T08:07:33;13.77;;;12.40;;
3726;SDS011;1879;45.876;12.300;2023-04-24T08:10:01;13.50;;;10.63;;
3726;SDS011;1879;45.876;12.300;2023-04-24T08:12:28;12.23;;;10.77;;
3726;SDS011;1879;45.876;12.300;2023-04-24T08:14:55;13.17;;;10.40;;
3726;SDS011;1879;45.876;12.300;2023-04-24T08:17:23;15.20;;;11.30;;
3726;SDS011;1879;45.876;12.300;2023-04-24T08:19:51;13.25;;;10.55;;
3726;SDS011;1879;45.876;12.300;2023-04-24T08:22:24;13.00;;;10.33;;
3726;SDS011;1879;45.876;12.300;2023-04-24T08:24:51;11.67;;;9.63;;
3726;SDS011;1879;45.876;12.300;2023-04-24T08:27:18;11.70;;;9.57;;
3726;SDS011;1879;45.876;12.300;2023-04-24T08:29:45;15.77;;;11.80;;
3726;SDS011;1879;45.876;12.300;2023-04-24T08:32:12;10.90;;;9.90;;
3726;SDS011;1879;45.876;12.300;2023-04-24T08:34:40;10.47;;;9.33;;
3726;SDS011;1879;45.876;12.300;2023-04-24T08:37:07;12.70;;;10.60;;
3726;SDS011;1879;45.876;12.300;2023-04-24T08:39:34;9.17;;;8.30;;
3726;SDS011;1879;45.876;12.300;2023-04-24T08:42:01;8.93;;;7.60;;
3726;SDS011;1879;45.876;12.300;2023-04-24T08:44:32;8.90;;;7.73;;
3726;SDS011;1879;45.876;12.300;2023-04-24T08:47:00;8.60;;;7.70;;
3726;SDS011;1879;45.876;12.300;2023-04-24T08:49:28;8.07;;;7.27;;
3726;SDS011;1879;45.876;12.300;2023-04-24T08:51:57;7.97;;;6.97;;
3726;SDS011;1879;45.876;12.300;2023-04-24T08:54:27;9.23;;;8.30;;
3726;SDS011;1879;45.876;12.300;2023-04-24T08:56:56;9.97;;;9.00;;
3726;SDS011;1879;45.876;12.300;2023-04-24T08:59:26;9.70;;;8.67;;
3726;SDS011;1879;45.876;12.300;2023-04-24T09:01:53;10.20;;;8.63;;
3726;SDS011;1879;45.876;12.300;2023-04-24T09:04:22;8.70;;;8.00;;
3726;SDS011;1879;45.876;12.300;2023-04-24T09:06:49;8.40;;;7.50;;
3726;SDS011;1879;45.876;12.300;2023-04-24T09:09:18;7.70;;;7.00;;
3726;SDS011;1879;45.876;12.300;2023-04-24T09:11:45;13.67;;;12.20;;
3726;SDS011;1879;45.876;12.300;2023-04-24T09:14:15;11.27;;;10.07;;
3726;SDS011;1879;45.876;12.300;2023-04-24T09:16:42;9.27;;;8.37;;
3726;SDS011;1879;45.876;12.300;2023-04-24T09:19:09;8.33;;;7.37;;
3726;SDS011;1879;45.876;12.300;2023-04-24T09:21:40;8.67;;;7.77;;
3726;SDS011;1879;45.876;12.300;2023-04-24T09:24:17;8.60;;;7.73;;
3726;SDS011;1879;45.876;12.300;2023-04-24T09:26:47;7.13;;;5.97;;
3726;SDS011;1879;45.876;12.300;2023-04-24T09:29:15;7.53;;;6.83;;
3726;SDS011;1879;45.876;12.300;2023-04-24T09:31:43;8.83;;;8.03;;
3726;SDS011;1879;45.876;12.300;2023-04-24T09:34:12;10.47;;;9.50;;
3726;SDS011;1879;45.876;12.300;2023-04-24T09:36:39;12.60;;;10.18;;
3726;SDS011;1879;45.876;12.300;2023-04-24T09:39:08;12.47;;;11.30;;
3726;SDS011;1879;45.876;12.300;2023-04-24T09:41:44;12.30;;;11.10;;
3726;SDS011;1879;45.876;12.300;2023-04-24T09:44:13;11.30;;;10.30;;
3726;SDS011;1879;45.876;12.300;2023-04-24T09:46:41;11.00;;;9.90;;
3726;SDS011;1879;45.876;12.300;2023-04-24T09:49:09;9.20;;;8.40;;
3726;SDS011;1879;45.876;12.300;2023-04-24T09:51:38;8.80;;;8.00;;
3726;SDS011;1879;45.876;12.300;2023-04-24T09:54:11;8.67;;;7.63;;
3726;SDS011;1879;45.876;12.300;2023-04-24T09:56:42;10.27;;;7.80;;
3726;SDS011;1879;45.876;12.300;2023-04-24T09:59:11;7.38;;;6.63;;
3726;SDS011;1879;45.876;12.300;2023-04-24T10:01:39;9.90;;;6.00;;
3726;SDS011;1879;45.876;12.300;2023-04-24T10:04:15;5.70;;;5.20;;
3726;SDS011;1879;45.876;12.300;2023-04-24T10:06:43;4.83;;;4.43;;
3726;SDS011;1879;45.876;12.300;2023-04-24T10:09:10;4.25;;;3.60;;
3726;SDS011;1879;45.876;12.300;2023-04-24T10:11:40;4.20;;;3.67;;
3726;SDS011;1879;45.876;12.300;2023-04-24T10:14:10;5.90;;;3.20;;
3726;SDS011;1879;45.876;12.300;2023-04-24T10:16:39;3.23;;;2.10;;
3726;SDS011;1879;45.876;12.300;2023-04-24T10:19:07;2.47;;;2.05;;
3726;SDS011;1879;45.876;12.300;2023-04-24T10:21:35;2.50;;;2.10;;
3726;SDS011;1879;45.876;12.300;2023-04-24T10:24:03;2.80;;;2.27;;
3726;SDS011;1879;45.876;12.300;2023-04-24T10:26:33;2.50;;;2.30;;
3726;SDS011;1879;45.876;12.300;2023-04-24T10:29:01;2.70;;;2.50;;
3726;SDS011;1879;45.876;12.300;2023-04-24T10:31:32;3.25;;;2.95;;
3726;SDS011;1879;45.876;12.300;2023-04-24T10:34:00;4.90;;;3.23;;
3726;SDS011;1879;45.876;12.300;2023-04-24T10:36:30;3.20;;;2.90;;
3726;SDS011;1879;45.876;12.300;2023-04-24T10:38:59;5.10;;;3.43;;
3726;SDS011;1879;45.876;12.300;2023-04-24T10:41:28;4.55;;;2.75;;
3726;SDS011;1879;45.876;12.300;2023-04-24T10:44:06;5.30;;;4.80;;
3726;SDS011;1879;45.876;12.300;2023-04-24T10:46:36;2.77;;;2.40;;
3726;SDS011;1879;45.876;12.300;2023-04-24T10:49:04;3.23;;;2.73;;
3726;SDS011;1879;45.876;12.300;2023-04-24T10:51:44;2.40;;;2.20;;
3726;SDS011;1879;45.876;12.300;2023-04-24T10:54:22;2.90;;;2.40;;
3726;SDS011;1879;45.876;12.300;2023-04-24T10:56:50;3.27;;;2.10;;
3726;SDS011;1879;45.876;12.300;2023-04-24T10:59:23;3.23;;;2.50;;
3726;SDS011;1879;45.876;12.300;2023-04-24T11:01:54;2.70;;;2.50;;
3726;SDS011;1879;45.876;12.300;2023-04-24T11:04:31;3.40;;;2.40;;
3726;SDS011;1879;45.876;12.300;2023-04-24T11:07:00;2.73;;;2.40;;
3726;SDS011;1879;45.876;12.300;2023-04-24T11:09:29;2.50;;;2.30;;
3726;SDS011;1879;45.876;12.300;2023-04-24T11:12:04;2.60;;;2.40;;
3726;SDS011;1879;45.876;12.300;2023-04-24T11:17:30;2.43;;;2.23;;
3726;SDS011;1879;45.876;12.300;2023-04-24T11:20:01;2.60;;;2.10;;
3726;SDS011;1879;45.876;12.300;2023-04-24T11:22:30;2.50;;;2.30;;
3726;SDS011;1879;45.876;12.300;2023-04-24T11:25:00;3.37;;;2.83;;
3726;SDS011;1879;45.876;12.300;2023-04-24T11:27:29;4.67;;;2.47;;
3726;SDS011;1879;45.876;12.300;2023-04-24T11:30:01;2.60;;;2.40;;
3726;SDS011;1879;45.876;12.300;2023-04-24T11:32:34;2.60;;;2.40;;
3726;SDS011;1879;45.876;12.300;2023-04-24T11:35:05;4.17;;;2.33;;
3726;SDS011;1879;45.876;12.300;2023-04-24T11:37:39;2.20;;;1.80;;
3726;SDS011;1879;45.876;12.300;2023-04-24T11:40:07;2.30;;;1.70;;
3726;SDS011;1879;45.876;12.300;2023-04-24T11:42:36;4.80;;;2.30;;
3726;SDS011;1879;45.876;12.300;2023-04-24T11:45:07;2.63;;;1.50;;
3726;SDS011;1879;45.876;12.300;2023-04-24T11:47:37;2.30;;;2.00;;
3726;SDS011;1879;45.876;12.300;2023-04-24T11:50:05;1.70;;;1.60;;
3726;SDS011;1879;45.876;12.300;2023-04-24T11:52:36;1.60;;;1.40;;
3726;SDS011;1879;45.876;12.300;2023-04-24T11:55:06;3.00;;;1.40;;
3726;SDS011;1879;45.876;12.300;2023-04-24T11:57:34;1.30;;;1.20;;
3726;SDS011;1879;45.876;12.300;2023-04-24T12:00:02;1.20;;;0.90;;
3726;SDS011;1879;45.876;12.300;2023-04-24T12:02:31;2.07;;;1.47;;
3726;SDS011;1879;45.876;12.300;2023-04-24T12:04:59;1.97;;;1.47;;
3726;SDS011;1879;45.876;12.300;2023-04-24T12:07:26;2.60;;;1.63;;
3726;SDS011;1879;45.876;12.300;2023-04-24T12:09:56;3.33;;;1.80;;
3726;SDS011;1879;45.876;12.300;2023-04-24T12:12:25;2.03;;;1.53;;
3726;SDS011;1879;45.876;12.300;2023-04-24T12:14:53;1.90;;;1.40;;
3726;SDS011;1879;45.876;12.300;2023-04-24T12:17:25;1.60;;;1.20;;
3726;SDS011;1879;45.876;12.300;2023-04-24T12:19:56;1.70;;;1.30;;
3726;SDS011;1879;45.876;12.300;2023-04-24T12:22:25;1.50;;;1.27;;
3726;SDS011;1879;45.876;12.300;2023-04-24T12:24:59;1.30;;;1.10;;
3726;SDS011;1879;45.876;12.300;2023-04-24T12:27:31;2.60;;;1.33;;
3726;SDS011;1879;45.876;12.300;2023-04-24T12:29:59;1.30;;;1.20;;
3726;SDS011;1879;45.876;12.300;2023-04-24T12:32:28;1.93;;;1.50;;
3726;SDS011;1879;45.876;12.300;2023-04-24T12:34:55;1.83;;;1.50;;
3726;SDS011;1879;45.876;12.300;2023-04-24T12:37:22;1.70;;;1.60;;
3726;SDS011;1879;45.876;12.300;2023-04-24T12:40:05;1.50;;;1.40;;
3726;SDS011;1879;45.876;12.300;2023-04-24T12:42:34;2.28;;;1.55;;
3726;SDS011;1879;45.876;12.300;2023-04-24T12:45:05;1.67;;;1.57;;
3726;SDS011;1879;45.876;12.300;2023-04-24T12:47:39;2.13;;;1.77;;
3726;SDS011;1879;45.876;12.300;2023-04-24T12:50:07;2.30;;;2.10;;
3726;SDS011;1879;45.876;12.300;2023-04-24T12:52:34;1.97;;;1.80;;
3726;SDS011;1879;45.876;12.300;2023-04-24T12:55:06;2.00;;;1.73;;
3726;SDS011;1879;45.876;12.300;2023-04-24T12:57:35;2.30;;;2.10;;
3726;SDS011;1879;45.876;12.300;2023-04-24T13:00:03;2.30;;;2.10;;
3726;SDS011;1879;45.876;12.300;2023-04-24T13:02:32;2.22;;;2.00;;
3726;SDS011;1879;45.876;12.300;2023-04-24T13:05:00;2.45;;;2.25;;
3726;SDS011;1879;45.876;12.300;2023-04-24T13:07:27;2.87;;;2.43;;
3726;SDS011;1879;45.876;12.300;2023-04-24T13:09:55;3.50;;;3.20;;
3726;SDS011;1879;45.876;12.300;2023-04-24T13:12:24;4.00;;;3.70;;
3726;SDS011;1879;45.876;12.300;2023-04-24T13:14:51;3.40;;;3.10;;
3726;SDS011;1879;45.876;12.300;2023-04-24T13:17:18;3.80;;;3.50;;
3726;SDS011;1879;45.876;12.300;2023-04-24T13:19:45;3.00;;;2.70;;
3726;SDS011;1879;45.876;12.300;2023-04-24T13:22:12;3.47;;;3.00;;
3726;SDS011;1879;45.876;12.300;2023-04-24T13:24:40;2.60;;;2.13;;
3726;SDS011;1879;45.876;12.300;2023-04-24T13:27:07;2.45;;;2.25;;
3726;SDS011;1879;45.876;12.300;2023-04-24T13:29:36;3.53;;;2.37;;
3726;SDS011;1879;45.876;12.300;2023-04-24T13:32:03;3.77;;;1.70;;
3726;SDS011;1879;45.876;12.300;2023-04-24T13:34:30;1.83;;;1.70;;
3726;SDS011;1879;45.876;12.300;2023-04-24T13:36:57;1.90;;;1.70;;
3726;SDS011;1879;45.876;12.300;2023-04-24T13:39:25;2.00;;;1.80;;
3726;SDS011;1879;45.876;12.300;2023-04-24T13:41:52;3.00;;;1.87;;
3726;SDS011;1879;45.876;12.300;2023-04-24T13:44:20;2.23;;;2.00;;
3726;SDS011;1879;45.876;12.300;2023-04-24T13:46:51;2.00;;;1.80;;
3726;SDS011;1879;45.876;12.300;2023-04-24T13:49:19;3.47;;;1.70;;
3726;SDS011;1879;45.876;12.300;2023-04-24T13:51:47;2.00;;;1.70;;
3726;SDS011;1879;45.876;12.300;2023-04-24T13:54:14;3.10;;;2.00;;
3726;SDS011;1879;45.876;12.300;2023-04-24T13:56:41;2.23;;;1.93;;
3726;SDS011;1879;45.876;12.300;2023-04-24T13:59:08;1.67;;;1.33;;
3726;SDS011;1879;45.876;12.300;2023-04-24T14:01:35;1.50;;;1.40;;
3726;SDS011;1879;45.876;12.300;2023-04-24T14:04:03;2.23;;;1.53;;
3726;SDS011;1879;45.876;12.300;2023-04-24T14:06:30;2.47;;;2.00;;
3726;SDS011;1879;45.876;12.300;2023-04-24T14:08:57;2.17;;;1.97;;
3726;SDS011;1879;45.876;12.300;2023-04-24T14:11:24;1.90;;;1.70;;
3726;SDS011;1879;45.876;12.300;2023-04-24T14:13:53;2.40;;;2.20;;
3726;SDS011;1879;45.876;12.300;2023-04-24T14:16:22;2.60;;;2.40;;
3726;SDS011;1879;45.876;12.300;2023-04-24T14:18:49;2.40;;;2.20;;
3726;SDS011;1879;45.876;12.300;2023-04-24T14:21:18;2.40;;;2.20;;
3726;SDS011;1879;45.876;12.300;2023-04-24T14:23:45;2.70;;;2.20;;
3726;SDS011;1879;45.876;12.300;2023-04-24T14:26:12;2.23;;;2.03;;
3726;SDS011;1879;45.876;12.300;2023-04-24T14:28:39;3.23;;;2.27;;
3726;SDS011;1879;45.876;12.300;2023-04-24T14:31:06;3.13;;;2.83;;
3726;SDS011;1879;45.876;12.300;2023-04-24T14:33:33;2.50;;;2.30;;
3726;SDS011;1879;45.876;12.300;2023-04-24T14:36:00;3.07;;;2.37;;
3726;SDS011;1879;45.876;12.300;2023-04-24T14:38:29;2.80;;;2.60;;
3726;SDS011;1879;45.876;12.300;2023-04-24T14:40:56;2.40;;;2.20;;
3726;SDS011;1879;45.876;12.300;2023-04-24T14:43:23;3.40;;;2.53;;
3726;SDS011;1879;45.876;12.300;2023-04-24T14:45:50;3.00;;;2.20;;
3726;SDS011;1879;45.876;12.300;2023-04-24T14:48:17;2.40;;;2.00;;
3726;SDS011;1879;45.876;12.300;2023-04-24T14:50:44;2.63;;;2.00;;
3726;SDS011;1879;45.876;12.300;2023-04-24T14:53:11;2.05;;;1.80;;
3726;SDS011;1879;45.876;12.300;2023-04-24T14:55:39;1.77;;;1.67;;
3726;SDS011;1879;45.876;12.300;2023-04-24T14:58:06;2.58;;;1.90;;